sensor_id;sensor_type;location;lat;lon;timestamp;pressure;altitude;pressure_sealevel;temperature;humidity
72086;BME280;64750;52.134;5.424;2024-03-25T00:02:09;100970.66;;;5.57;96.88
72086;BME280;64750;52.134;5.424;2024-03-25T00:04:34;100974.31;;;5.53;96.29
72086;BME280;64750;52.134;5.424;2024-03-25T00:07:01;100969.16;;;5.51;96.40
72086;BME280;64750;52.134;5.424;2024-03-25T00:09:27;100969.16;;;5.51;96.30
72086;BME280;64750;52.134;5.424;2024-03-25T00:11:53;100974.38;;;5.51;96.62
72086;BME280;64750;52.134;5.424;2024-03-25T00:14:21;100969.16;;;5.51;96.41
72086;BME280;64750;52.134;5.424;2024-03-25T00:16:47;100969.91;;;5.53;96.77
72086;BME280;64750;52.134;5.424;2024-03-25T00:19:13;100965.50;;;5.55;96.89
72086;BME280;64750;52.134;5.424;2024-03-25T00:21:38;100969.09;;;5.53;96.65
72086;BME280;64750;52.134;5.424;2024-03-25T00:24:04;100967.44;;;5.50;96.34
72086;BME280;64750;52.134;5.424;2024-03-25T00:26:30;100963.97;;;5.50;96.52
72086;BME280;64750;52.134;5.424;2024-03-25T00:28:55;100958.75;;;5.50;96.39
72086;BME280;64750;52.134;5.424;2024-03-25T00:31:21;100956.06;;;5.53;96.50
72086;BME280;64750;52.134;5.424;2024-03-25T00:33:46;100956.88;;;5.53;96.24
72086;BME280;64750;52.134;5.424;2024-03-25T00:36:12;100951.66;;;5.53;96.62
72086;BME280;64750;52.134;5.424;2024-03-25T00:38:38;100949.00;;;5.55;96.26
72086;BME280;64750;52.134;5.424;2024-03-25T00:41:03;100952.63;;;5.51;96.10
72086;BME280;64750;52.134;5.424;2024-03-25T00:43:29;100959.00;;;5.44;95.69
72086;BME280;64750;52.134;5.424;2024-03-25T00:45:54;100961.91;;;5.36;95.84
72086;BME280;64750;52.134;5.424;2024-03-25T00:48:20;100953.06;;;5.40;96.19
72086;BME280;64750;52.134;5.424;2024-03-25T00:50:45;100950.31;;;5.43;96.26
72086;BME280;64750;52.134;5.424;2024-03-25T00:53:11;100947.78;;;5.41;96.02
72086;BME280;64750;52.134;5.424;2024-03-25T00:55:37;100943.41;;;5.42;96.01
72086;BME280;64750;52.134;5.424;2024-03-25T00:58:03;100953.13;;;5.38;95.75
72086;BME280;64750;52.134;5.424;2024-03-25T01:00:29;100959.28;;;5.36;95.63
72086;BME280;64750;52.134;5.424;2024-03-25T01:02:55;100960.06;;;5.38;95.74
72086;BME280;64750;52.134;5.424;2024-03-25T01:05:20;100955.75;;;5.37;95.82
72086;BME280;64750;52.134;5.424;2024-03-25T01:07:46;100954.06;;;5.36;96.23
72086;BME280;64750;52.134;5.424;2024-03-25T01:10:11;100961.03;;;5.35;95.58
72086;BME280;64750;52.134;5.424;2024-03-25T01:12:37;100961.97;;;5.33;95.39
72086;BME280;64750;52.134;5.424;2024-03-25T01:15:02;100964.72;;;5.30;95.58
72086;BME280;64750;52.134;5.424;2024-03-25T01:17:28;100957.78;;;5.29;95.61
72086;BME280;64750;52.134;5.424;2024-03-25T01:19:54;100964.94;;;5.23;95.38
72086;BME280;64750;52.134;5.424;2024-03-25T01:22:19;100966.94;;;5.15;94.99
72086;BME280;64750;52.134;5.424;2024-03-25T01:24:45;100968.78;;;5.13;95.17
72086;BME280;64750;52.134;5.424;2024-03-25T01:27:10;100968.78;;;5.13;95.19
72086;BME280;64750;52.134;5.424;2024-03-25T01:29:36;100969.59;;;5.14;94.95
72086;BME280;64750;52.134;5.424;2024-03-25T01:32:02;100975.91;;;5.08;94.83
72086;BME280;64750;52.134;5.424;2024-03-25T01:34:29;100972.41;;;5.09;94.97
72086;BME280;64750;52.134;5.424;2024-03-25T01:36:55;100979.41;;;5.07;94.99
72086;BME280;64750;52.134;5.424;2024-03-25T01:39:21;100981.19;;;5.05;95.04
72086;BME280;64750;52.134;5.424;2024-03-25T01:41:46;100967.41;;;5.03;94.91
72086;BME280;64750;52.134;5.424;2024-03-25T01:44:12;100976.03;;;5.03;94.88
72086;BME280;64750;52.134;5.424;2024-03-25T01:46:37;100973.28;;;5.08;95.10
72086;BME280;64750;52.134;5.424;2024-03-25T01:49:04;100971.38;;;5.13;95.09
72086;BME280;64750;52.134;5.424;2024-03-25T01:51:30;100964.59;;;5.09;94.81
72086;BME280;64750;52.134;5.424;2024-03-25T01:53:56;100972.66;;;5.01;94.47
72086;BME280;64750;52.134;5.424;2024-03-25T01:56:23;100977.81;;;5.03;94.43
72086;BME280;64750;52.134;5.424;2024-03-25T01:58:49;100968.44;;;4.97;94.35
72086;BME280;64750;52.134;5.424;2024-03-25T02:01:15;100976.22;;;4.99;94.24
72086;BME280;64750;52.134;5.424;2024-03-25T02:03:44;100979.81;;;4.95;94.03
72086;BME280;64750;52.134;5.424;2024-03-25T02:06:13;100981.00;;;4.86;93.95
72086;BME280;64750;52.134;5.424;2024-03-25T02:08:40;100975.81;;;4.84;94.03
72086;BME280;64750;52.134;5.424;2024-03-25T02:11:07;100974.13;;;4.83;94.03
72086;BME280;64750;52.134;5.424;2024-03-25T02:13:32;100976.84;;;4.80;93.92
72086;BME280;64750;52.134;5.424;2024-03-25T02:15:58;100972.53;;;4.79;94.11
72086;BME280;64750;52.134;5.424;2024-03-25T02:18:23;100978.69;;;4.76;94.06
72086;BME280;64750;52.134;5.424;2024-03-25T02:20:49;100977.84;;;4.76;94.18
72086;BME280;64750;52.134;5.424;2024-03-25T02:23:14;100981.47;;;4.72;94.44
72086;BME280;64750;52.134;5.424;2024-03-25T02:25:41;100986.56;;;4.75;94.55
72086;BME280;64750;52.134;5.424;2024-03-25T02:28:08;100984.78;;;4.77;94.66
72086;BME280;64750;52.134;5.424;2024-03-25T02:30:33;100972.66;;;4.76;94.80
72086;BME280;64750;52.134;5.424;2024-03-25T02:32:59;100978.63;;;4.78;94.74
72086;BME280;64750;52.134;5.424;2024-03-25T02:35:25;100974.28;;;4.79;94.91
72086;BME280;64750;52.134;5.424;2024-03-25T02:37:52;100977.09;;;4.72;94.92
72086;BME280;64750;52.134;5.424;2024-03-25T02:40:18;100982.38;;;4.71;94.98
72086;BME280;64750;52.134;5.424;2024-03-25T02:42:46;100978.88;;;4.72;95.04
72086;BME280;64750;52.134;5.424;2024-03-25T02:45:12;100970.25;;;4.70;95.21
72086;BME280;64750;52.134;5.424;2024-03-25T02:47:37;100970.25;;;4.70;95.05
72086;BME280;64750;52.134;5.424;2024-03-25T02:50:03;100977.16;;;4.71;95.37
72086;BME280;64750;52.134;5.424;2024-03-25T02:52:29;100977.03;;;4.74;95.35
72086;BME280;64750;52.134;5.424;2024-03-25T02:54:54;100966.69;;;4.72;95.43
72086;BME280;64750;52.134;5.424;2024-03-25T02:57:20;100973.59;;;4.73;95.31
72086;BME280;64750;52.134;5.424;2024-03-25T02:59:46;100970.09;;;4.74;95.55
72086;BME280;64750;52.134;5.424;2024-03-25T03:02:12;100960.47;;;4.76;95.63
72086;BME280;64750;52.134;5.424;2024-03-25T03:04:37;100960.38;;;4.80;95.55
72086;BME280;64750;52.134;5.424;2024-03-25T03:07:03;100949.09;;;4.79;95.56
72086;BME280;64750;52.134;5.424;2024-03-25T03:09:29;100967.31;;;4.79;95.24
72086;BME280;64750;52.134;5.424;2024-03-25T03:11:54;100969.16;;;4.77;95.38
72086;BME280;64750;52.134;5.424;2024-03-25T03:14:20;100960.53;;;4.75;95.11
72086;BME280;64750;52.134;5.424;2024-03-25T03:16:46;100959.72;;;4.73;95.15
72086;BME280;64750;52.134;5.424;2024-03-25T03:19:11;100960.66;;;4.70;94.98
72086;BME280;64750;52.134;5.424;2024-03-25T03:21:37;100964.13;;;4.71;95.14
72086;BME280;64750;52.134;5.424;2024-03-25T03:24:03;100957.97;;;4.73;94.98
72086;BME280;64750;52.134;5.424;2024-03-25T03:26:29;100965.66;;;4.76;94.75
72086;BME280;64750;52.134;5.424;2024-03-25T03:28:55;100960.38;;;4.80;95.01
72086;BME280;64750;52.134;5.424;2024-03-25T03:31:21;100956.91;;;4.79;94.78
72086;BME280;64750;52.134;5.424;2024-03-25T03:33:47;100950.09;;;4.75;94.63
72086;BME280;64750;52.134;5.424;2024-03-25T03:36:17;100950.91;;;4.77;94.51
72086;BME280;64750;52.134;5.424;2024-03-25T03:38:43;100949.22;;;4.76;94.35
72086;BME280;64750;52.134;5.424;2024-03-25T03:41:09;100950.94;;;4.75;94.50
72086;BME280;64750;52.134;5.424;2024-03-25T03:43:35;100947.50;;;4.75;94.55
72086;BME280;64750;52.134;5.424;2024-03-25T03:46:00;100947.63;;;4.72;94.07
72086;BME280;64750;52.134;5.424;2024-03-25T03:48:27;100952.22;;;4.64;94.09
72086;BME280;64750;52.134;5.424;2024-03-25T03:50:52;100953.09;;;4.64;93.94
72086;BME280;64750;52.134;5.424;2024-03-25T03:53:18;100953.03;;;4.66;93.90
72086;BME280;64750;52.134;5.424;2024-03-25T03:55:56;100953.03;;;4.66;93.79
72086;BME280;64750;52.134;5.424;2024-03-25T03:58:22;100953.13;;;4.63;93.57
72086;BME280;64750;52.134;5.424;2024-03-25T04:00:48;100941.81;;;4.64;93.62
72086;BME280;64750;52.134;5.424;2024-03-25T04:03:14;100938.44;;;4.60;93.48
72086;BME280;64750;52.134;5.424;2024-03-25T04:05:39;100932.59;;;4.53;93.38
72086;BME280;64750;52.134;5.424;2024-03-25T04:08:05;100928.22;;;4.55;93.29
72086;BME280;64750;52.134;5.424;2024-03-25T04:10:31;100931.72;;;4.54;93.34
72086;BME280;64750;52.134;5.424;2024-03-25T04:12:56;100926.66;;;4.50;92.85
72086;BME280;64750;52.134;5.424;2024-03-25T04:15:22;100928.41;;;4.49;93.19
72086;BME280;64750;52.134;5.424;2024-03-25T04:17:48;100932.72;;;4.50;93.10
72086;BME280;64750;52.134;5.424;2024-03-25T04:20:16;100936.41;;;4.43;92.82
72086;BME280;64750;52.134;5.424;2024-03-25T04:22:42;100940.78;;;4.42;93.05
72086;BME280;64750;52.134;5.424;2024-03-25T04:25:12;100946.88;;;4.41;92.96
72086;BME280;64750;52.134;5.424;2024-03-25T04:27:44;100949.75;;;4.34;92.71
72086;BME280;64750;52.134;5.424;2024-03-25T04:30:10;100946.50;;;4.27;92.59
72086;BME280;64750;52.134;5.424;2024-03-25T04:32:37;100940.41;;;4.26;92.71
72086;BME280;64750;52.134;5.424;2024-03-25T04:35:04;100942.88;;;4.31;92.71
72086;BME280;64750;52.134;5.424;2024-03-25T04:37:30;100946.56;;;4.24;92.39
72086;BME280;64750;52.134;5.424;2024-03-25T04:39:56;100948.53;;;4.17;92.24
72086;BME280;64750;52.134;5.424;2024-03-25T04:42:22;100945.09;;;4.15;92.13
72086;BME280;64750;52.134;5.424;2024-03-25T04:44:48;100950.31;;;4.15;92.07
72086;BME280;64750;52.134;5.424;2024-03-25T04:47:13;100945.09;;;4.17;92.03
72086;BME280;64750;52.134;5.424;2024-03-25T04:49:41;100940.78;;;4.16;92.20
72086;BME280;64750;52.134;5.424;2024-03-25T04:52:06;100942.44;;;4.18;92.41
72086;BME280;64750;52.134;5.424;2024-03-25T04:54:32;100947.72;;;4.15;91.98
72086;BME280;64750;52.134;5.424;2024-03-25T04:56:58;100940.78;;;4.16;92.21
72086;BME280;64750;52.134;5.424;2024-03-25T04:59:23;100945.09;;;4.15;91.82
72086;BME280;64750;52.134;5.424;2024-03-25T05:01:49;100949.47;;;4.15;92.09
72086;BME280;64750;52.134;5.424;2024-03-25T05:04:14;100947.75;;;4.14;92.04
72086;BME280;64750;52.134;5.424;2024-03-25T05:06:40;100945.16;;;4.14;91.93
72086;BME280;64750;52.134;5.424;2024-03-25T05:09:05;100951.25;;;4.14;92.13
72086;BME280;64750;52.134;5.424;2024-03-25T05:11:33;100948.06;;;4.04;91.74
72086;BME280;64750;52.134;5.424;2024-03-25T05:13:59;100949.06;;;4.00;91.66
72086;BME280;64750;52.134;5.424;2024-03-25T05:16:25;100956.19;;;3.93;91.81
72086;BME280;64750;52.134;5.424;2024-03-25T05:18:50;100946.59;;;3.96;91.75
72086;BME280;64750;52.134;5.424;2024-03-25T05:21:16;100960.41;;;3.98;91.53
72086;BME280;64750;52.134;5.424;2024-03-25T05:23:41;100959.53;;;3.97;91.67
72086;BME280;64750;52.134;5.424;2024-03-25T05:26:07;100964.72;;;3.99;91.92
72086;BME280;64750;52.134;5.424;2024-03-25T05:28:33;100967.41;;;3.96;91.90
72086;BME280;64750;52.134;5.424;2024-03-25T05:31:08;100969.19;;;3.93;91.49
72086;BME280;64750;52.134;5.424;2024-03-25T05:33:34;100978.69;;;3.94;91.56
72086;BME280;64750;52.134;5.424;2024-03-25T05:36:00;100971.69;;;3.97;91.67
72086;BME280;64750;52.134;5.424;2024-03-25T05:38:26;100973.47;;;3.96;91.73
72086;BME280;64750;52.134;5.424;2024-03-25T05:40:52;100972.53;;;3.99;91.66
72086;BME280;64750;52.134;5.424;2024-03-25T05:43:18;100980.28;;;4.00;92.12
72086;BME280;64750;52.134;5.424;2024-03-25T05:45:54;100973.25;;;4.02;91.92
72086;BME280;64750;52.134;5.424;2024-03-25T05:48:20;100974.97;;;4.03;92.26
72086;BME280;64750;52.134;5.424;2024-03-25T05:50:46;100966.38;;;4.01;91.85
72086;BME280;64750;52.134;5.424;2024-03-25T05:53:12;100970.88;;;3.96;91.73
72086;BME280;64750;52.134;5.424;2024-03-25T05:55:38;100969.94;;;3.97;91.81
72086;BME280;64750;52.134;5.424;2024-03-25T05:58:03;100965.63;;;3.98;92.12
72086;BME280;64750;52.134;5.424;2024-03-25T06:00:30;100974.38;;;3.93;91.98
72086;BME280;64750;52.134;5.424;2024-03-25T06:02:56;100966.69;;;3.90;92.15
72086;BME280;64750;52.134;5.424;2024-03-25T06:05:22;100970.19;;;3.89;91.94
72086;BME280;64750;52.134;5.424;2024-03-25T06:07:47;100970.13;;;3.91;92.09
72086;BME280;64750;52.134;5.424;2024-03-25T06:10:13;100967.41;;;3.96;92.50
72086;BME280;64750;52.134;5.424;2024-03-25T06:12:39;100964.91;;;3.92;92.18
72086;BME280;64750;52.134;5.424;2024-03-25T06:15:04;100964.91;;;3.92;92.65
72086;BME280;64750;52.134;5.424;2024-03-25T06:17:30;100963.09;;;3.94;92.80
72086;BME280;64750;52.134;5.424;2024-03-25T06:19:56;100962.31;;;3.92;92.94
72086;BME280;64750;52.134;5.424;2024-03-25T06:22:21;100965.78;;;3.91;93.11
72086;BME280;64750;52.134;5.424;2024-03-25T06:24:47;100966.50;;;3.97;93.16
72086;BME280;64750;52.134;5.424;2024-03-25T06:27:14;100961.31;;;3.97;93.37
72086;BME280;64750;52.134;5.424;2024-03-25T06:29:40;100963.78;;;4.00;93.53
72086;BME280;64750;52.134;5.424;2024-03-25T06:32:05;100955.09;;;4.01;93.96
72086;BME280;64750;52.134;5.424;2024-03-25T06:34:49;100949.94;;;3.99;93.71
72086;BME280;64750;52.134;5.424;2024-03-25T06:37:15;100948.13;;;4.03;93.93
72086;BME280;64750;52.134;5.424;2024-03-25T06:39:40;100947.06;;;4.08;94.40
72086;BME280;64750;52.134;5.424;2024-03-25T06:42:07;100956.50;;;4.11;94.35
72086;BME280;64750;52.134;5.424;2024-03-25T06:44:32;100950.41;;;4.12;94.47
72086;BME280;64750;52.134;5.424;2024-03-25T06:46:58;100953.72;;;4.17;95.05
72086;BME280;64750;52.134;5.424;2024-03-25T06:49:23;100957.94;;;4.21;95.18
72086;BME280;64750;52.134;5.424;2024-03-25T06:51:49;100958.63;;;4.26;95.55
72086;BME280;64750;52.134;5.424;2024-03-25T06:54:14;100959.44;;;4.29;95.55
72086;BME280;64750;52.134;5.424;2024-03-25T06:56:40;100955.03;;;4.31;96.25
72086;BME280;64750;52.134;5.424;2024-03-25T06:59:05;100952.34;;;4.34;96.31
72086;BME280;64750;52.134;5.424;2024-03-25T07:01:31;100957.44;;;4.37;96.80
72086;BME280;64750;52.134;5.424;2024-03-25T07:03:57;100953.03;;;4.39;97.07
72086;BME280;64750;52.134;5.424;2024-03-25T07:06:22;100952.94;;;4.42;97.31
72086;BME280;64750;52.134;5.424;2024-03-25T07:08:49;100955.41;;;4.47;97.78
72086;BME280;64750;52.134;5.424;2024-03-25T07:11:14;100956.16;;;4.50;97.69
72086;BME280;64750;52.134;5.424;2024-03-25T07:13:40;100951.72;;;4.52;98.29
72086;BME280;64750;52.134;5.424;2024-03-25T07:16:05;100953.34;;;4.56;98.42
72086;BME280;64750;52.134;5.424;2024-03-25T07:18:31;100955.00;;;4.59;98.78
72086;BME280;64750;52.134;5.424;2024-03-25T07:20:57;100952.16;;;4.65;98.98
72086;BME280;64750;52.134;5.424;2024-03-25T07:23:22;100950.25;;;4.70;99.37
72086;BME280;64750;52.134;5.424;2024-03-25T07:25:48;100952.66;;;4.76;99.79
72086;BME280;64750;52.134;5.424;2024-03-25T07:28:13;100955.88;;;4.83;99.74
72086;BME280;64750;52.134;5.424;2024-03-25T07:30:39;100947.09;;;4.87;99.89
72086;BME280;64750;52.134;5.424;2024-03-25T07:33:04;100955.59;;;4.92;100.00
72086;BME280;64750;52.134;5.424;2024-03-25T07:35:30;100958.78;;;5.01;100.00
72086;BME280;64750;52.134;5.424;2024-03-25T07:37:56;100958.56;;;5.07;100.00
72086;BME280;64750;52.134;5.424;2024-03-25T07:40:21;100957.44;;;5.14;100.00
72086;BME280;64750;52.134;5.424;2024-03-25T07:42:48;100954.59;;;5.20;100.00
72086;BME280;64750;52.134;5.424;2024-03-25T07:45:17;100959.59;;;5.26;100.00
72086;BME280;64750;52.134;5.424;2024-03-25T07:47:42;100955.06;;;5.32;100.00
72086;BME280;64750;52.134;5.424;2024-03-25T07:50:08;100952.44;;;5.33;100.00
72086;BME280;64750;52.134;5.424;2024-03-25T07:52:34;100960.13;;;5.36;100.00
72086;BME280;64750;52.134;5.424;2024-03-25T07:55:06;100959.09;;;5.40;100.00
72086;BME280;64750;52.134;5.424;2024-03-25T07:57:31;100954.63;;;5.44;100.00
72086;BME280;64750;52.134;5.424;2024-03-25T07:59:57;100963.19;;;5.48;100.00
72086;BME280;64750;52.134;5.424;2024-03-25T08:02:22;100962.00;;;5.56;100.00
72086;BME280;64750;52.134;5.424;2024-03-25T08:04:48;100958.97;;;5.67;100.00
72086;BME280;64750;52.134;5.424;2024-03-25T08:07:13;100952.63;;;5.74;100.00
72086;BME280;64750;52.134;5.424;2024-03-25T08:09:39;100956.88;;;5.77;100.00
72086;BME280;64750;52.134;5.424;2024-03-25T08:12:05;100959.28;;;5.82;100.00
72086;BME280;64750;52.134;5.424;2024-03-25T08:14:30;100967.03;;;5.85;100.00
72086;BME280;64750;52.134;5.424;2024-03-25T08:16:56;100968.66;;;5.87;100.00
72086;BME280;64750;52.134;5.424;2024-03-25T08:19:21;100966.72;;;5.93;99.78
72086;BME280;64750;52.134;5.424;2024-03-25T08:21:47;100968.25;;;5.98;100.00
72086;BME280;64750;52.134;5.424;2024-03-25T08:24:14;100969.06;;;6.00;99.33
72086;BME280;64750;52.134;5.424;2024-03-25T08:26:39;100968.94;;;6.03;99.16
72086;BME280;64750;52.134;5.424;2024-03-25T08:29:05;100965.19;;;6.11;98.71
72086;BME280;64750;52.134;5.424;2024-03-25T08:31:31;100963.31;;;6.14;98.36
72086;BME280;64750;52.134;5.424;2024-03-25T08:33:56;100961.22;;;6.22;98.52
72086;BME280;64750;52.134;5.424;2024-03-25T08:36:22;100960.84;;;6.32;98.60
72086;BME280;64750;52.134;5.424;2024-03-25T08:38:48;100963.28;;;6.36;97.82
72086;BME280;64750;52.134;5.424;2024-03-25T08:41:14;100966.75;;;6.37;97.75
72086;BME280;64750;52.134;5.424;2024-03-25T08:43:40;100961.47;;;6.38;97.39
72086;BME280;64750;52.134;5.424;2024-03-25T08:46:06;100969.09;;;6.43;96.92
72086;BME280;64750;52.134;5.424;2024-03-25T08:48:31;100959.31;;;6.48;96.83
72086;BME280;64750;52.134;5.424;2024-03-25T08:50:57;100960.13;;;6.50;96.36
72086;BME280;64750;52.134;5.424;2024-03-25T08:53:22;100956.59;;;6.51;96.64
72086;BME280;64750;52.134;5.424;2024-03-25T08:55:48;100952.81;;;6.59;96.70
72086;BME280;64750;52.134;5.424;2024-03-25T08:58:14;100957.66;;;6.68;97.24
72086;BME280;64750;52.134;5.424;2024-03-25T09:00:41;100963.66;;;6.70;95.98
72086;BME280;64750;52.134;5.424;2024-03-25T09:03:06;100951.50;;;6.69;95.28
72086;BME280;64750;52.134;5.424;2024-03-25T09:05:33;100952.44;;;6.68;94.38
72086;BME280;64750;52.134;5.424;2024-03-25T09:08:00;100948.84;;;6.70;93.54
72086;BME280;64750;52.134;5.424;2024-03-25T09:10:25;100951.47;;;6.70;93.00
72086;BME280;64750;52.134;5.424;2024-03-25T09:13:09;100942.56;;;6.75;93.02
72086;BME280;64750;52.134;5.424;2024-03-25T09:15:35;100949.22;;;6.82;92.96
72086;BME280;64750;52.134;5.424;2024-03-25T09:18:00;100941.19;;;6.86;93.22
72086;BME280;64750;52.134;5.424;2024-03-25T09:20:26;100936.53;;;6.93;93.27
72086;BME280;64750;52.134;5.424;2024-03-25T09:22:52;100938.97;;;6.98;93.05
72086;BME280;64750;52.134;5.424;2024-03-25T09:25:18;100940.69;;;6.99;91.97
72086;BME280;64750;52.134;5.424;2024-03-25T09:27:47;100943.22;;;7.00;91.29
72086;BME280;64750;52.134;5.424;2024-03-25T09:30:13;100944.84;;;7.03;90.92
72086;BME280;64750;52.134;5.424;2024-03-25T09:32:40;100932.22;;;7.13;90.71
72086;BME280;64750;52.134;5.424;2024-03-25T09:35:06;100940.00;;;7.14;90.16
72086;BME280;64750;52.134;5.424;2024-03-25T09:37:32;100935.34;;;7.21;90.34
72086;BME280;64750;52.134;5.424;2024-03-25T09:39:58;100929.69;;;7.30;90.79
72086;BME280;64750;52.134;5.424;2024-03-25T09:42:47;100931.97;;;7.38;90.93
72086;BME280;64750;52.134;5.424;2024-03-25T09:45:16;100925.91;;;7.37;90.17
72086;BME280;64750;52.134;5.424;2024-03-25T09:47:45;100925.81;;;7.39;90.37
72086;BME280;64750;52.134;5.424;2024-03-25T09:50:12;100926.81;;;7.36;89.67
72086;BME280;64750;52.134;5.424;2024-03-25T09:52:39;100928.25;;;7.44;89.88
72086;BME280;64750;52.134;5.424;2024-03-25T09:55:05;100918.81;;;7.59;90.03
72086;BME280;64750;52.134;5.424;2024-03-25T09:57:31;100918.25;;;7.71;90.07
72086;BME280;64750;52.134;5.424;2024-03-25T09:59:57;100916.09;;;7.79;89.92
72086;BME280;64750;52.134;5.424;2024-03-25T10:02:23;100916.75;;;7.84;89.30
72086;BME280;64750;52.134;5.424;2024-03-25T10:04:52;100911.31;;;7.89;88.75
72086;BME280;64750;52.134;5.424;2024-03-25T10:07:24;100900.47;;;7.97;88.64
72086;BME280;64750;52.134;5.424;2024-03-25T10:09:50;100901.16;;;8.00;88.69
72086;BME280;64750;52.134;5.424;2024-03-25T10:12:16;100889.78;;;8.01;87.99
72086;BME280;64750;52.134;5.424;2024-03-25T10:14:42;100889.63;;;8.04;86.88
72086;BME280;64750;52.134;5.424;2024-03-25T10:17:07;100890.41;;;8.07;86.87
72086;BME280;64750;52.134;5.424;2024-03-25T10:19:33;100888.69;;;8.05;86.55
72086;BME280;64750;52.134;5.424;2024-03-25T10:22:08;100890.47;;;8.05;86.73
72086;BME280;64750;52.134;5.424;2024-03-25T10:24:41;100887.25;;;8.00;85.98
72086;BME280;64750;52.134;5.424;2024-03-25T10:27:21;100884.69;;;7.98;84.73
72086;BME280;64750;52.134;5.424;2024-03-25T10:29:47;100885.25;;;8.05;85.22
72086;BME280;64750;52.134;5.424;2024-03-25T10:32:14;100876.44;;;8.06;85.48
72086;BME280;64750;52.134;5.424;2024-03-25T10:34:40;100875.63;;;8.05;85.53
72086;BME280;64750;52.134;5.424;2024-03-25T10:37:09;100873.41;;;8.15;85.98
72086;BME280;64750;52.134;5.424;2024-03-25T10:39:39;100875.56;;;8.25;86.43
72086;BME280;64750;52.134;5.424;2024-03-25T10:42:05;100863.22;;;8.27;86.23
72086;BME280;64750;52.134;5.424;2024-03-25T10:44:31;100867.78;;;8.23;85.18
72086;BME280;64750;52.134;5.424;2024-03-25T10:46:59;100865.53;;;8.15;83.56
72086;BME280;64750;52.134;5.424;2024-03-25T10:49:45;100865.69;;;8.12;83.49
72086;BME280;64750;52.134;5.424;2024-03-25T10:52:14;100862.44;;;8.07;83.42
72086;BME280;64750;52.134;5.424;2024-03-25T10:54:41;100860.63;;;8.09;84.04
72086;BME280;64750;52.134;5.424;2024-03-25T10:57:09;100849.97;;;8.12;84.80
72086;BME280;64750;52.134;5.424;2024-03-25T10:59:35;100849.88;;;8.14;85.02
72086;BME280;64750;52.134;5.424;2024-03-25T11:02:07;100848.66;;;8.21;85.21
72086;BME280;64750;52.134;5.424;2024-03-25T11:04:33;100835.09;;;8.30;84.73
72086;BME280;64750;52.134;5.424;2024-03-25T11:07:09;100839.81;;;8.41;83.64
72086;BME280;64750;52.134;5.424;2024-03-25T11:09:36;100837.84;;;8.46;83.34
72086;BME280;64750;52.134;5.424;2024-03-25T11:12:02;100837.53;;;8.52;83.09
72086;BME280;64750;52.134;5.424;2024-03-25T11:14:28;100837.19;;;8.59;83.17
72086;BME280;64750;52.134;5.424;2024-03-25T11:16:57;100833.50;;;8.63;83.36
72086;BME280;64750;52.134;5.424;2024-03-25T11:19:29;100827.91;;;8.69;81.73
72086;BME280;64750;52.134;5.424;2024-03-25T11:22:07;100825.28;;;8.69;81.33
72086;BME280;64750;52.134;5.424;2024-03-25T11:24:34;100824.22;;;8.73;81.07
72086;BME280;64750;52.134;5.424;2024-03-25T11:27:02;100816.97;;;8.78;80.64
72086;BME280;64750;52.134;5.424;2024-03-25T11:29:27;100815.78;;;8.84;80.46
72086;BME280;64750;52.134;5.424;2024-03-25T11:31:53;100805.75;;;8.92;80.17
72086;BME280;64750;52.134;5.424;2024-03-25T11:34:19;100809.03;;;8.96;79.60
72086;BME280;64750;52.134;5.424;2024-03-25T11:36:45;100811.50;;;8.99;79.06
72086;BME280;64750;52.134;5.424;2024-03-25T11:39:13;100813.94;;;9.02;79.45
72086;BME280;64750;52.134;5.424;2024-03-25T11:41:42;100800.59;;;9.07;79.15
72086;BME280;64750;52.134;5.424;2024-03-25T11:44:08;100803.97;;;9.09;78.31
72086;BME280;64750;52.134;5.424;2024-03-25T11:46:38;100799.59;;;9.09;78.31
72086;BME280;64750;52.134;5.424;2024-03-25T11:49:06;100788.34;;;9.07;78.12
72086;BME280;64750;52.134;5.424;2024-03-25T11:51:33;100786.72;;;9.05;77.72
72086;BME280;64750;52.134;5.424;2024-03-25T11:53:59;100784.88;;;9.07;78.40
72086;BME280;64750;52.134;5.424;2024-03-25T11:56:25;100777.41;;;9.15;78.17
72086;BME280;64750;52.134;5.424;2024-03-25T11:58:51;100770.81;;;9.24;78.15
72086;BME280;64750;52.134;5.424;2024-03-25T12:01:17;100767.88;;;9.30;77.43
72086;BME280;64750;52.134;5.424;2024-03-25T12:03:42;100772.94;;;9.33;76.74
72086;BME280;64750;52.134;5.424;2024-03-25T12:06:08;100760.09;;;9.28;75.89
72086;BME280;64750;52.134;5.424;2024-03-25T12:08:33;100759.50;;;9.23;75.79
72086;BME280;64750;52.134;5.424;2024-03-25T12:11:09;100754.59;;;9.17;75.80
72086;BME280;64750;52.134;5.424;2024-03-25T12:13:43;100757.31;;;9.15;76.65
72086;BME280;64750;52.134;5.424;2024-03-25T12:16:09;100748.16;;;9.23;76.82
72086;BME280;64750;52.134;5.424;2024-03-25T12:18:35;100755.78;;;9.27;76.33
72086;BME280;64750;52.134;5.424;2024-03-25T12:21:04;100739.19;;;9.27;75.39
72086;BME280;64750;52.134;5.424;2024-03-25T12:23:33;100737.16;;;9.32;75.60
72086;BME280;64750;52.134;5.424;2024-03-25T12:25:59;100729.19;;;9.33;75.65
72086;BME280;64750;52.134;5.424;2024-03-25T12:28:25;100730.72;;;9.38;75.33
72086;BME280;64750;52.134;5.424;2024-03-25T12:30:52;100725.56;;;9.36;74.60
72086;BME280;64750;52.134;5.424;2024-03-25T12:33:19;100724.03;;;9.32;73.84
72086;BME280;64750;52.134;5.424;2024-03-25T12:35:51;100719.81;;;9.29;72.83
72086;BME280;64750;52.134;5.424;2024-03-25T12:38:28;100714.28;;;9.34;73.70
72086;BME280;64750;52.134;5.424;2024-03-25T12:41:03;100728.47;;;9.46;72.95
72086;BME280;64750;52.134;5.424;2024-03-25T12:43:31;100720.84;;;9.57;71.10
72086;BME280;64750;52.134;5.424;2024-03-25T12:45:58;100718.78;;;9.62;69.89
72086;BME280;64750;52.134;5.424;2024-03-25T12:48:24;100712.34;;;9.68;69.38
72086;BME280;64750;52.134;5.424;2024-03-25T12:50:50;100713.28;;;9.67;69.09
72086;BME280;64750;52.134;5.424;2024-03-25T12:53:17;100711.59;;;9.66;68.05
72086;BME280;64750;52.134;5.424;2024-03-25T12:55:43;100704.75;;;9.63;68.56
72086;BME280;64750;52.134;5.424;2024-03-25T12:58:08;100700.16;;;9.67;69.03